Time;durP1;ratioP1;P1;durP2;ratioP2;P2;SDS_P1;SDS_P2;PMS_P1;PMS_P2;Temp;Humidity;BMP_temperature;BMP_pressure;BME280_temperature;BME280_humidity;BME280_pressure;Samples;Min_cycle;Max_cycle;Signal;HPM_P1;HPM_P2
2021/07/04 00:00:57;;;;;;;;;;;13.60;87.40;;;;;;4988948;28;19972;-67
2021/07/04 00:03:23;;;;;;;;;;;13.50;87.40;;;;;;4988388;28;19926;-68
2021/07/04 00:05:49;;;;;;;;;;;13.50;87.50;;;;;;4988654;28;19925;-68
2021/07/04 00:08:16;;;;;;;;;;;13.50;87.60;;;;;;5073530;28;19918;-68
2021/07/04 00:10:44;;;;;;;;;;;13.50;87.70;;;;;;4991673;28;19924;-67
2021/07/04 00:13:10;;;;;;;;;;;13.50;87.70;;;;;;4990662;28;19947;-67
2021/07/04 00:15:40;;;;;;;;;;;13.40;87.70;;;;;;4991510;28;20001;-67
2021/07/04 00:18:11;;;;;;;;;;;13.40;87.80;;;;;;4989958;28;19925;-68
2021/07/04 00:20:37;;;;;;;;;;;13.40;88.00;;;;;;4991433;28;20300;-66
2021/07/04 00:23:02;;;;;;;;;;;13.40;88.20;;;;;;4985589;28;19922;-67
2021/07/04 00:25:28;;;;;;;;;;;13.30;88.20;;;;;;4991968;28;19917;-67
2021/07/04 00:27:55;;;;;;;;;;;13.30;88.30;;;;;;4988505;28;20004;-67
2021/07/04 00:30:20;;;;;;;;;;;13.30;88.50;;;;;;4984033;28;20016;-68
2021/07/04 00:32:46;;;;;;;;;;;13.30;88.80;;;;;;4991932;28;20028;-67
2021/07/04 00:35:13;;;;;;;;;;;13.30;88.90;;;;;;4973818;28;19922;-68
2021/07/04 00:37:38;;;;;;;;;;;13.20;89.00;;;;;;4991721;28;19993;-67
2021/07/04 00:40:04;;;;;;;;;;;13.20;89.00;;;;;;4990374;28;19922;-67
2021/07/04 00:42:30;;;;;;;;;;;13.20;89.10;;;;;;4991659;28;19925;-67
2021/07/04 00:44:56;;;;;;;;;;;13.20;89.10;;;;;;4990442;28;19918;-68
2021/07/04 00:47:22;;;;;;;;;;;13.20;89.20;;;;;;5006000;28;19918;-68
2021/07/04 00:49:47;;;;;;;;;;;13.10;89.10;;;;;;4973988;28;19922;-67
2021/07/04 00:52:13;;;;;;;;;;;13.10;89.20;;;;;;4990152;28;19918;-67
2021/07/04 00:54:39;;;;;;;;;;;13.10;89.30;;;;;;4991075;28;20370;-67
2021/07/04 00:57:06;;;;;;;;;;;13.10;89.30;;;;;;4989865;28;19918;-68
2021/07/04 00:59:32;;;;;;;;;;;13.10;89.50;;;;;;4990950;28;19922;-67
2021/07/04 01:01:59;;;;;;;;;;;13.10;89.70;;;;;;5006422;28;19918;-67
2021/07/04 01:04:26;;;;;;;;;;;13.00;89.70;;;;;;4989957;28;19918;-67
2021/07/04 01:06:53;;;;;;;;;;;13.00;89.70;;;;;;4989500;28;20190;-68
2021/07/04 01:09:19;;;;;;;;;;;13.00;89.80;;;;;;4991080;28;19918;-68
2021/07/04 01:11:46;;;;;;;;;;;13.00;89.90;;;;;;4973529;28;20381;-68
2021/07/04 01:14:12;;;;;;;;;;;13.00;89.90;;;;;;4989731;28;20323;-67
2021/07/04 01:16:38;;;;;;;;;;;12.90;90.00;;;;;;4989427;28;19939;-67
2021/07/04 01:19:04;;;;;;;;;;;12.90;90.00;;;;;;4989911;28;19922;-68
2021/07/04 01:21:32;;;;;;;;;;;12.90;90.10;;;;;;4990028;28;19918;-69
2021/07/04 01:23:58;;;;;;;;;;;12.90;90.10;;;;;;4991298;28;20005;-67
2021/07/04 01:26:24;;;;;;;;;;;12.90;90.10;;;;;;4973338;28;20408;-68
2021/07/04 01:28:50;;;;;;;;;;;12.80;90.10;;;;;;4990587;28;19926;-68
2021/07/04 01:31:15;;;;;;;;;;;12.80;90.20;;;;;;4989386;28;20377;-67
2021/07/04 01:33:50;;;;;;;;;;;12.80;90.30;;;;;;4974607;28;19921;-68
2021/07/04 01:36:35;;;;;;;;;;;12.80;90.30;;;;;;4989141;28;19930;-69
2021/07/04 01:39:02;;;;;;;;;;;12.80;90.40;;;;;;4990818;28;19918;-69
2021/07/04 01:41:30;;;;;;;;;;;12.70;90.40;;;;;;4990389;28;20146;-67
2021/07/04 01:43:56;;;;;;;;;;;12.80;90.40;;;;;;4989637;28;20404;-66
2021/07/04 01:46:25;;;;;;;;;;;12.70;90.40;;;;;;4989512;28;19941;-68
2021/07/04 01:48:57;;;;;;;;;;;12.70;90.50;;;;;;4988750;28;20339;-68
2021/07/04 01:51:23;;;;;;;;;;;12.70;90.60;;;;;;4990778;28;19921;-68
2021/07/04 01:53:49;;;;;;;;;;;12.70;90.60;;;;;;4989999;28;19922;-66
2021/07/04 01:56:20;;;;;;;;;;;12.60;90.60;;;;;;4973892;28;19918;-68
2021/07/04 01:58:48;;;;;;;;;;;12.60;90.50;;;;;;4989654;28;20404;-64
2021/07/04 02:01:22;;;;;;;;;;;12.60;90.50;;;;;;5005440;28;19914;-64
2021/07/04 02:03:48;;;;;;;;;;;12.60;90.50;;;;;;4990183;28;19918;-64
2021/07/04 02:06:17;;;;;;;;;;;12.60;90.50;;;;;;4988498;28;20381;-64
2021/07/04 02:08:47;;;;;;;;;;;12.60;90.60;;;;;;4973180;28;19914;-64
2021/07/04 02:11:13;;;;;;;;;;;12.50;90.60;;;;;;4989699;28;19918;-65
2021/07/04 02:13:43;;;;;;;;;;;12.50;90.60;;;;;;4988824;28;20042;-64
2021/07/04 02:16:16;;;;;;;;;;;12.50;90.60;;;;;;4988597;28;19918;-64
2021/07/04 02:18:53;;;;;;;;;;;12.50;90.60;;;;;;4988352;28;19921;-64
2021/07/04 02:21:54;;;;;;;;;;;12.50;90.70;;;;;;4977261;28;20297;-64
2021/07/04 02:24:34;;;;;;;;;;;12.50;90.80;;;;;;4990070;28;19918;-64
2021/07/04 02:27:10;;;;;;;;;;;12.50;90.80;;;;;;4988236;28;20103;-64
2021/07/04 02:29:44;;;;;;;;;;;12.50;90.80;;;;;;4973508;28;20335;-64
2021/07/04 02:32:13;;;;;;;;;;;12.40;90.80;;;;;;4988722;28;19918;-64
2021/07/04 02:34:38;;;;;;;;;;;12.40;90.80;;;;;;4989847;28;19918;-64
2021/07/04 02:37:06;;;;;;;;;;;12.40;90.90;;;;;;4987942;28;20013;-65
2021/07/04 02:39:51;;;;;;;;;;;12.40;90.90;;;;;;4974930;28;19918;-64
2021/07/04 02:42:17;;;;;;;;;;;12.40;90.90;;;;;;4982296;28;19926;-65
2021/07/04 02:44:42;;;;;;;;;;;12.30;91.00;;;;;;4988945;28;20388;-64
2021/07/04 02:47:12;;;;;;;;;;;12.30;91.00;;;;;;4988188;28;20293;-64
2021/07/04 02:49:39;;;;;;;;;;;12.30;91.00;;;;;;4971887;28;20013;-64
2021/07/04 02:52:08;;;;;;;;;;;12.30;91.10;;;;;;4988159;28;20369;-64
2021/07/04 02:54:34;;;;;;;;;;;12.30;91.10;;;;;;4987834;28;20000;-64
2021/07/04 02:57:25;;;;;;;;;;;12.30;91.20;;;;;;4990773;28;19949;-64
2021/07/04 02:59:53;;;;;;;;;;;12.30;91.20;;;;;;4989214;28;19953;-65
2021/07/04 03:02:20;;;;;;;;;;;12.30;91.10;;;;;;4988288;28;19914;-64
2021/07/04 03:04:52;;;;;;;;;;;12.30;91.20;;;;;;4987682;28;19925;-64
2021/07/04 03:07:19;;;;;;;;;;;12.30;91.20;;;;;;4987768;28;19925;-64
2021/07/04 03:09:46;;;;;;;;;;;12.30;91.30;;;;;;4987580;28;19989;-64
2021/07/04 03:12:16;;;;;;;;;;;12.30;91.30;;;;;;4972485;28;20412;-64
2021/07/04 03:14:42;;;;;;;;;;;12.30;91.50;;;;;;4987951;28;20013;-64
2021/07/04 03:17:08;;;;;;;;;;;12.30;91.30;;;;;;4987228;28;20412;-65
2021/07/04 03:19:34;;;;;;;;;;;12.30;91.40;;;;;;4987808;28;19917;-63
2021/07/04 03:22:03;;;;;;;;;;;12.30;91.40;;;;;;4988854;28;19918;-64
2021/07/04 03:24:29;;;;;;;;;;;12.30;91.40;;;;;;4987848;28;19918;-64
2021/07/04 03:26:55;;;;;;;;;;;12.40;91.50;;;;;;4971674;28;19947;-65
2021/07/04 03:29:22;;;;;;;;;;;12.40;91.50;;;;;;4987295;28;20012;-64
2021/07/04 03:31:47;;;;;;;;;;;12.40;91.50;;;;;;4987663;28;20334;-64
2021/07/04 03:34:15;;;;;;;;;;;12.40;91.50;;;;;;4987710;28;19929;-64
2021/07/04 03:36:42;;;;;;;;;;;12.40;91.50;;;;;;4987134;28;19918;-64
2021/07/04 03:39:11;;;;;;;;;;;12.50;91.60;;;;;;4989063;28;19997;-64
2021/07/04 03:41:37;;;;;;;;;;;12.40;91.50;;;;;;4971432;28;19918;-64
2021/07/04 03:44:04;;;;;;;;;;;12.50;91.50;;;;;;4990916;28;19944;-64
2021/07/04 03:46:29;;;;;;;;;;;12.50;91.60;;;;;;4992451;28;20421;-64
2021/07/04 03:48:55;;;;;;;;;;;12.50;91.60;;;;;;4990261;28;20378;-64
2021/07/04 03:51:28;;;;;;;;;;;12.50;91.60;;;;;;4991135;28;20363;-64
2021/07/04 03:53:57;;;;;;;;;;;12.50;91.60;;;;;;4990591;28;19975;-64
2021/07/04 03:56:23;;;;;;;;;;;12.50;91.70;;;;;;4986689;28;19930;-64
2021/07/04 03:58:51;;;;;;;;;;;12.60;91.70;;;;;;4989101;28;19974;-64
2021/07/04 04:01:21;;;;;;;;;;;12.60;91.80;;;;;;4987931;28;19922;-64
2021/07/04 04:03:50;;;;;;;;;;;12.60;91.80;;;;;;5006062;28;19925;-64
2021/07/04 04:06:16;;;;;;;;;;;12.70;91.80;;;;;;4974068;28;19925;-65
2021/07/04 04:08:46;;;;;;;;;;;12.70;91.80;;;;;;4974557;28;19918;-64
2021/07/04 04:11:18;;;;;;;;;;;12.70;91.90;;;;;;4968341;28;19922;-64
2021/07/04 04:13:48;;;;;;;;;;;12.80;91.90;;;;;;4989437;28;19922;-64
2021/07/04 04:16:19;;;;;;;;;;;12.90;91.90;;;;;;4991794;28;20087;-65
2021/07/04 04:18:45;;;;;;;;;;;12.90;92.00;;;;;;4989496;28;20024;-65
2021/07/04 04:21:12;;;;;;;;;;;13.00;92.00;;;;;;4991925;28;19918;-64
2021/07/04 04:23:42;;;;;;;;;;;13.00;92.00;;;;;;4990025;28;19926;-64
2021/07/04 04:26:11;;;;;;;;;;;13.10;92.10;;;;;;4990423;28;19918;-64
2021/07/04 04:28:38;;;;;;;;;;;13.20;92.10;;;;;;5002253;23;19926;-69
2021/07/04 04:31:04;;;;;;;;;;;13.30;92.10;;;;;;4951560;29;19918;-67
2021/07/04 04:33:31;;;;;;;;;;;13.40;92.10;;;;;;4935807;28;19950;-67
2021/07/04 04:35:59;;;;;;;;;;;13.40;92.10;;;;;;4951100;28;19918;-67
2021/07/04 04:38:25;;;;;;;;;;;13.50;92.10;;;;;;4952371;28;20021;-68
2021/07/04 04:40:50;;;;;;;;;;;13.60;92.20;;;;;;4952342;28;19925;-67
2021/07/04 04:43:16;;;;;;;;;;;13.70;92.20;;;;;;4952747;28;20402;-67
2021/07/04 04:45:41;;;;;;;;;;;13.80;92.20;;;;;;4952586;28;19977;-67
2021/07/04 04:48:07;;;;;;;;;;;13.90;92.20;;;;;;4951759;28;19918;-66
2021/07/04 04:50:34;;;;;;;;;;;14.00;92.20;;;;;;4951414;29;19977;-68
2021/07/04 04:53:00;;;;;;;;;;;14.10;92.20;;;;;;4951171;28;20390;-68
2021/07/04 04:55:25;;;;;;;;;;;14.10;92.20;;;;;;4951400;28;20279;-67
2021/07/04 04:57:51;;;;;;;;;;;14.30;92.30;;;;;;4950999;29;19918;-67
2021/07/04 05:00:16;;;;;;;;;;;14.40;92.40;;;;;;4951957;28;20267;-67
2021/07/04 05:02:42;;;;;;;;;;;14.60;92.30;;;;;;4952375;28;19919;-67
2021/07/04 05:05:08;;;;;;;;;;;14.70;92.30;;;;;;4952343;28;19925;-68
2021/07/04 05:07:35;;;;;;;;;;;14.80;92.30;;;;;;4951635;28;20293;-67
2021/07/04 05:10:00;;;;;;;;;;;14.90;92.30;;;;;;4952227;28;19926;-67
2021/07/04 05:12:26;;;;;;;;;;;15.10;92.30;;;;;;4952273;28;20368;-68
2021/07/04 05:14:53;;;;;;;;;;;15.20;92.30;;;;;;4951850;28;20068;-67
2021/07/04 05:17:20;;;;;;;;;;;15.40;92.30;;;;;;4950689;29;19942;-67
2021/07/04 05:19:46;;;;;;;;;;;15.60;92.30;;;;;;4951722;28;19919;-67
2021/07/04 05:22:12;;;;;;;;;;;15.80;92.20;;;;;;4950791;29;20009;-67
2021/07/04 05:24:37;;;;;;;;;;;16.00;92.20;;;;;;4952129;28;19922;-67
2021/07/04 05:27:03;;;;;;;;;;;16.20;92.10;;;;;;4951473;28;19914;-66
2021/07/04 05:29:29;;;;;;;;;;;16.40;92.00;;;;;;4951642;28;20347;-67
2021/07/04 05:31:55;;;;;;;;;;;16.60;91.90;;;;;;4950701;29;19945;-68
2021/07/04 05:34:20;;;;;;;;;;;16.80;91.70;;;;;;4951499;28;19929;-67
2021/07/04 05:36:48;;;;;;;;;;;17.00;91.50;;;;;;4951653;28;20018;-69
2021/07/04 05:39:14;;;;;;;;;;;17.10;91.30;;;;;;4951404;28;19918;-67
2021/07/04 05:41:39;;;;;;;;;;;17.30;91.10;;;;;;4951707;28;20390;-68
2021/07/04 05:44:05;;;;;;;;;;;17.50;90.90;;;;;;4951880;28;20029;-68
2021/07/04 05:46:34;;;;;;;;;;;17.70;90.90;;;;;;4951312;28;19957;-66
2021/07/04 05:49:00;;;;;;;;;;;18.30;91.60;;;;;;4951441;28;19918;-68
2021/07/04 05:51:25;;;;;;;;;;;19.60;93.90;;;;;;4951682;28;19967;-68
2021/07/04 05:53:51;;;;;;;;;;;21.20;94.90;;;;;;4952825;28;20900;-69
2021/07/04 05:56:16;;;;;;;;;;;22.40;93.20;;;;;;4951560;28;19914;-69
2021/07/04 05:58:42;;;;;;;;;;;23.40;91.70;;;;;;4949618;28;19919;-68
2021/07/04 06:01:08;;;;;;;;;;;24.30;90.70;;;;;;5034328;28;19922;-69
2021/07/04 06:03:33;;;;;;;;;;;25.30;89.00;;;;;;4951482;28;19926;-70
2021/07/04 06:05:59;;;;;;;;;;;26.40;87.20;;;;;;5033791;28;19938;-69
2021/07/04 06:08:24;;;;;;;;;;;27.50;83.90;;;;;;5033826;28;19919;-69
2021/07/04 06:10:51;;;;;;;;;;;28.50;81.10;;;;;;4951330;28;20383;-69
2021/07/04 06:13:17;;;;;;;;;;;29.30;77.40;;;;;;5017216;28;19922;-69
2021/07/04 06:15:43;;;;;;;;;;;30.00;73.50;;;;;;4951325;28;20006;-70
2021/07/04 06:18:08;;;;;;;;;;;30.60;70.50;;;;;;4946705;28;20009;-69
2021/07/04 06:20:34;;;;;;;;;;;31.00;65.10;;;;;;4954647;28;19950;-70
2021/07/04 06:23:00;;;;;;;;;;;31.30;63.20;;;;;;4970505;28;19941;-70
2021/07/04 06:25:25;;;;;;;;;;;31.70;62.10;;;;;;4968844;28;20108;-70
2021/07/04 06:27:51;;;;;;;;;;;32.40;60.60;;;;;;4970108;28;20308;-70
2021/07/04 06:30:17;;;;;;;;;;;33.00;58.30;;;;;;4970318;28;20416;-71
2021/07/04 06:32:43;;;;;;;;;;;33.50;56.40;;;;;;4969935;28;19960;-71
2021/07/04 06:35:10;;;;;;;;;;;34.00;54.80;;;;;;4970283;28;19958;-71
2021/07/04 06:37:38;;;;;;;;;;;34.40;51.10;;;;;;4968916;28;21275;-73
2021/07/04 06:40:04;;;;;;;;;;;34.70;49.70;;;;;;4966963;28;20385;-73
2021/07/04 06:42:30;;;;;;;;;;;35.00;48.20;;;;;;4953231;28;19918;-72
2021/07/04 06:44:55;;;;;;;;;;;35.10;45.60;;;;;;4968930;28;19927;-71
2021/07/04 06:47:21;;;;;;;;;;;35.00;43.50;;;;;;4968458;28;19942;-71
2021/07/04 06:49:46;;;;;;;;;;;35.10;43.80;;;;;;4970027;28;19937;-72
2021/07/04 06:52:12;;;;;;;;;;;35.50;43.50;;;;;;4969755;28;20380;-72
2021/07/04 06:54:38;;;;;;;;;;;35.80;42.80;;;;;;4970046;28;19922;-72
2021/07/04 06:59:48;;;;;;;;;;;36.60;41.10;;;;;;4970052;28;19925;-72
2021/07/04 07:02:13;;;;;;;;;;;37.10;40.00;;;;;;4969496;28;19914;-71
2021/07/04 07:04:39;;;;;;;;;;;37.20;38.40;;;;;;4968577;28;19923;-72
2021/07/04 07:07:04;;;;;;;;;;;37.30;37.60;;;;;;4969455;28;20396;-71
2021/07/04 07:09:30;;;;;;;;;;;37.50;37.30;;;;;;4968235;28;19919;-72
2021/07/04 07:11:56;;;;;;;;;;;37.90;37.10;;;;;;4969723;28;19918;-72
2021/07/04 07:14:21;;;;;;;;;;;38.10;36.60;;;;;;4969333;28;20381;-70
2021/07/04 07:16:47;;;;;;;;;;;38.80;36.10;;;;;;4969766;28;19922;-72
2021/07/04 07:19:13;;;;;;;;;;;39.60;35.80;;;;;;4971212;28;20817;-72
2021/07/04 07:21:39;;;;;;;;;;;40.10;34.30;;;;;;4972254;28;19922;-72
2021/07/04 07:24:04;;;;;;;;;;;40.50;33.30;;;;;;4972734;28;19924;-72
2021/07/04 07:26:30;;;;;;;;;;;40.60;31.50;;;;;;4971626;28;19953;-72
2021/07/04 07:28:55;;;;;;;;;;;40.70;31.50;;;;;;4970716;28;19926;-72
2021/07/04 07:31:21;;;;;;;;;;;40.60;30.30;;;;;;4971658;28;19918;-72
2021/07/04 07:33:47;;;;;;;;;;;40.60;30.50;;;;;;4971176;28;20005;-71
2021/07/04 07:36:12;;;;;;;;;;;40.60;30.60;;;;;;4987974;28;19918;-72
2021/07/04 07:38:38;;;;;;;;;;;40.80;30.60;;;;;;4972625;28;20378;-72
2021/07/04 07:41:04;;;;;;;;;;;41.10;30.00;;;;;;4954675;28;20290;-71
2021/07/04 07:43:30;;;;;;;;;;;41.10;29.30;;;;;;4971194;28;19926;-72
2021/07/04 07:45:57;;;;;;;;;;;40.90;29.70;;;;;;4971591;28;19914;-72
2021/07/04 07:48:22;;;;;;;;;;;41.30;30.00;;;;;;4955436;28;19934;-72
2021/07/04 07:50:56;;;;;;;;;;;41.60;29.50;;;;;;4995052;28;20356;-70
2021/07/04 07:53:22;;;;;;;;;;;41.80;28.80;;;;;;4963968;28;20243;-70
2021/07/04 07:55:49;;;;;;;;;;;41.80;28.70;;;;;;5026860;28;19932;-70
2021/07/04 07:58:15;;;;;;;;;;;42.10;28.50;;;;;;4976270;28;19918;-70
2021/07/04 08:00:43;;;;;;;;;;;42.40;28.40;;;;;;4971353;28;19957;-71
2021/07/04 08:03:13;;;;;;;;;;;42.60;27.60;;;;;;4971282;28;19961;-70
2021/07/04 08:05:39;;;;;;;;;;;42.30;27.20;;;;;;4972083;28;19922;-70
2021/07/04 08:08:05;;;;;;;;;;;41.90;26.90;;;;;;4972064;28;19967;-70
2021/07/04 08:10:34;;;;;;;;;;;41.60;27.20;;;;;;4972334;28;19923;-70
2021/07/04 08:12:59;;;;;;;;;;;40.90;27.00;;;;;;4971769;28;19953;-70
2021/07/04 08:15:25;;;;;;;;;;;40.60;27.60;;;;;;4972166;28;20373;-69
2021/07/04 08:17:51;;;;;;;;;;;40.20;27.40;;;;;;4971499;28;19919;-70
2021/07/04 08:20:17;;;;;;;;;;;39.60;27.60;;;;;;4972302;28;20015;-70
2021/07/04 08:22:43;;;;;;;;;;;39.80;28.40;;;;;;4972366;28;20496;-70
2021/07/04 08:25:09;;;;;;;;;;;40.10;28.10;;;;;;4971778;28;20373;-70
2021/07/04 08:27:35;;;;;;;;;;;40.30;28.30;;;;;;4971926;28;20013;-70
2021/07/04 08:30:01;;;;;;;;;;;40.60;28.00;;;;;;4991665;28;20414;-70
2021/07/04 08:32:27;;;;;;;;;;;40.10;27.70;;;;;;4956988;28;19926;-70
2021/07/04 08:34:52;;;;;;;;;;;39.90;28.20;;;;;;4958546;28;19949;-70
2021/07/04 08:37:18;;;;;;;;;;;40.30;28.50;;;;;;4969443;28;20037;-70
2021/07/04 08:39:43;;;;;;;;;;;40.30;28.10;;;;;;4954060;28;19919;-69
2021/07/04 08:42:09;;;;;;;;;;;39.80;28.00;;;;;;4959228;28;20540;-69
2021/07/04 08:44:34;;;;;;;;;;;39.20;27.90;;;;;;4970826;28;19923;-70
2021/07/04 08:47:00;;;;;;;;;;;38.90;28.30;;;;;;4970745;28;19918;-70
2021/07/04 08:49:26;;;;;;;;;;;38.90;28.70;;;;;;4970863;28;19953;-70
2021/07/04 08:51:51;;;;;;;;;;;38.80;28.50;;;;;;4971195;28;19952;-70
2021/07/04 08:54:17;;;;;;;;;;;38.70;28.70;;;;;;4971438;28;19922;-70
2021/07/04 08:56:46;;;;;;;;;;;38.70;29.10;;;;;;4970752;28;19918;-70
2021/07/04 08:59:11;;;;;;;;;;;38.80;29.30;;;;;;4971138;28;19923;-71
2021/07/04 09:01:44;;;;;;;;;;;39.50;29.50;;;;;;4971612;28;19922;-71
2021/07/04 09:04:11;;;;;;;;;;;40.40;29.20;;;;;;4971343;28;19922;-70
2021/07/04 09:06:59;;;;;;;;;;;41.30;28.80;;;;;;4971453;28;19918;-70
2021/07/04 09:09:28;;;;;;;;;;;42.50;28.80;;;;;;4971415;28;19972;-71
2021/07/04 09:11:57;;;;;;;;;;;43.90;27.80;;;;;;4971474;28;19926;-71
2021/07/04 09:14:28;;;;;;;;;;;44.80;27.00;;;;;;4971100;28;20006;-71
2021/07/04 09:16:55;;;;;;;;;;;45.30;26.50;;;;;;4971128;28;20294;-71
2021/07/04 09:19:20;;;;;;;;;;;45.60;26.10;;;;;;4970798;28;20014;-69
2021/07/04 09:22:12;;;;;;;;;;;46.10;25.90;;;;;;4971330;28;20005;-72
2021/07/04 09:24:42;;;;;;;;;;;46.40;25.60;;;;;;4971680;28;19997;-71
2021/07/04 09:27:11;;;;;;;;;;;45.90;24.90;;;;;;4971089;28;20294;-71
2021/07/04 09:29:42;;;;;;;;;;;45.60;25.10;;;;;;4970651;28;19922;-71
2021/07/04 09:32:09;;;;;;;;;;;45.10;24.70;;;;;;4971206;28;20055;-72
2021/07/04 09:34:34;;;;;;;;;;;44.40;24.90;;;;;;4971113;28;19922;-70
2021/07/04 09:37:00;;;;;;;;;;;43.00;24.80;;;;;;4970538;28;19915;-70
2021/07/04 09:39:25;;;;;;;;;;;41.50;25.40;;;;;;4970848;28;20323;-70
2021/07/04 09:42:01;;;;;;;;;;;40.40;25.90;;;;;;4969663;28;20417;-70
2021/07/04 09:44:26;;;;;;;;;;;39.20;26.20;;;;;;4969517;28;19926;-72
2021/07/04 09:47:11;;;;;;;;;;;37.90;26.70;;;;;;4969369;28;19930;-72
2021/07/04 09:49:37;;;;;;;;;;;36.90;27.70;;;;;;4970628;28;19999;-72
2021/07/04 09:52:12;;;;;;;;;;;37.10;29.60;;;;;;4969375;28;19929;-72
2021/07/04 09:54:37;;;;;;;;;;;37.30;28.90;;;;;;4970288;28;19923;-72
2021/07/04 09:57:05;;;;;;;;;;;37.20;28.70;;;;;;4970592;28;19929;-72
2021/07/04 09:59:32;;;;;;;;;;;37.90;29.60;;;;;;4970410;28;20076;-72
2021/07/04 10:01:57;;;;;;;;;;;39.00;29.30;;;;;;4970672;28;19918;-72
2021/07/04 10:04:30;;;;;;;;;;;39.90;28.90;;;;;;4970610;28;19918;-73
2021/07/04 10:06:56;;;;;;;;;;;39.90;27.90;;;;;;4970094;28;20482;-72
2021/07/04 10:09:25;;;;;;;;;;;38.80;27.40;;;;;;4970670;28;19918;-72
2021/07/04 10:11:51;;;;;;;;;;;37.60;27.70;;;;;;4970235;28;20000;-72
2021/07/04 10:14:17;;;;;;;;;;;36.70;28.40;;;;;;4970470;28;20014;-72
2021/07/04 10:16:43;;;;;;;;;;;35.80;29.30;;;;;;4970296;28;19979;-72
2021/07/04 10:19:10;;;;;;;;;;;35.30;29.90;;;;;;4969964;28;19987;-72
2021/07/04 10:21:36;;;;;;;;;;;34.90;30.50;;;;;;4970403;28;19963;-72
2021/07/04 10:24:02;;;;;;;;;;;34.70;31.20;;;;;;4970350;28;19922;-73
2021/07/04 10:26:28;;;;;;;;;;;36.00;32.50;;;;;;4970020;28;20289;-72
2021/07/04 10:28:57;;;;;;;;;;;37.50;31.60;;;;;;4993422;23;19931;-69
2021/07/04 10:31:23;;;;;;;;;;;38.70;30.80;;;;;;4970027;28;19918;-69
2021/07/04 10:34:08;;;;;;;;;;;38.80;29.50;;;;;;4969061;28;20381;-70
2021/07/04 10:36:52;;;;;;;;;;;38.50;29.20;;;;;;4968456;28;19919;-69
2021/07/04 10:39:18;;;;;;;;;;;37.70;28.60;;;;;;4970156;28;19926;-69
2021/07/04 10:41:53;;;;;;;;;;;37.60;29.80;;;;;;4969905;28;20011;-69
2021/07/04 10:44:34;;;;;;;;;;;39.00;29.80;;;;;;4970235;28;19919;-69
2021/07/04 10:47:01;;;;;;;;;;;39.70;29.00;;;;;;4969890;28;20389;-69
2021/07/04 10:49:31;;;;;;;;;;;39.60;28.30;;;;;;4968773;28;19914;-69
2021/07/04 10:52:01;;;;;;;;;;;38.70;27.80;;;;;;4967627;28;20009;-69
2021/07/04 10:54:49;;;;;;;;;;;37.50;28.00;;;;;;4969998;28;19929;-69
2021/07/04 10:57:21;;;;;;;;;;;36.10;28.50;;;;;;4969454;28;20321;-69
2021/07/04 10:59:59;;;;;;;;;;;34.90;29.30;;;;;;4969957;28;20374;-69
2021/07/04 11:02:35;;;;;;;;;;;34.20;30.10;;;;;;4958555;28;19926;-68
2021/07/04 11:05:01;;;;;;;;;;;33.80;30.50;;;;;;4950783;28;19919;-69
2021/07/04 11:07:46;;;;;;;;;;;33.40;31.30;;;;;;4948727;28;19919;-68
2021/07/04 11:10:17;;;;;;;;;;;32.90;32.00;;;;;;4949037;29;19977;-68
2021/07/04 11:12:43;;;;;;;;;;;32.50;32.60;;;;;;4950463;28;19969;-69
2021/07/04 11:15:12;;;;;;;;;;;32.20;33.10;;;;;;4949416;29;19946;-68
2021/07/04 11:17:59;;;;;;;;;;;32.00;33.30;;;;;;4949931;28;19918;-67
2021/07/04 11:20:26;;;;;;;;;;;31.80;33.80;;;;;;4950358;28;19918;-68
2021/07/04 11:22:58;;;;;;;;;;;31.80;34.50;;;;;;4950060;28;20429;-68
2021/07/04 11:25:27;;;;;;;;;;;32.00;34.70;;;;;;4950463;28;19922;-68
2021/07/04 11:28:11;;;;;;;;;;;32.00;34.40;;;;;;4949610;28;19922;-68
2021/07/04 11:30:36;;;;;;;;;;;31.80;34.10;;;;;;4950294;28;20339;-68
2021/07/04 11:33:14;;;;;;;;;;;31.50;34.30;;;;;;4948648;28;19960;-68
2021/07/04 11:35:40;;;;;;;;;;;31.30;35.20;;;;;;4950171;28;19918;-68
2021/07/04 11:38:12;;;;;;;;;;;31.20;35.70;;;;;;4949619;28;20325;-68
2021/07/04 11:40:41;;;;;;;;;;;31.00;35.90;;;;;;4950268;28;20454;-68
2021/07/04 11:43:33;;;;;;;;;;;30.80;36.30;;;;;;4949907;28;20408;-68
2021/07/04 11:45:58;;;;;;;;;;;30.70;36.60;;;;;;4949751;28;19919;-68
2021/07/04 11:48:44;;;;;;;;;;;30.70;37.00;;;;;;4949443;28;19937;-60
2021/07/04 11:51:10;;;;;;;;;;;30.70;36.70;;;;;;4950207;28;19919;-61
2021/07/04 11:53:45;;;;;;;;;;;30.80;36.70;;;;;;4949637;28;19929;-61
2021/07/04 11:56:11;;;;;;;;;;;30.80;36.80;;;;;;4948812;29;20272;-60
2021/07/04 11:58:37;;;;;;;;;;;31.00;37.10;;;;;;4949504;28;19915;-61
2021/07/04 12:01:03;;;;;;;;;;;31.40;37.80;;;;;;4950324;28;20005;-61
2021/07/04 12:03:29;;;;;;;;;;;32.30;38.50;;;;;;4951069;28;20009;-67
2021/07/04 12:06:03;;;;;;;;;;;33.30;38.40;;;;;;4953326;28;20013;-68
2021/07/04 12:08:29;;;;;;;;;;;34.10;37.90;;;;;;4952897;28;19926;-68
2021/07/04 12:10:55;;;;;;;;;;;34.60;36.70;;;;;;4952790;28;19921;-68
2021/07/04 12:13:20;;;;;;;;;;;34.70;35.40;;;;;;4953170;28;19922;-61
2021/07/04 12:15:51;;;;;;;;;;;34.60;34.70;;;;;;4953264;28;19918;-61
2021/07/04 12:18:18;;;;;;;;;;;34.20;34.50;;;;;;4952567;28;19919;-60
2021/07/04 12:20:53;;;;;;;;;;;33.90;34.50;;;;;;4952713;28;20207;-60
2021/07/04 12:23:19;;;;;;;;;;;33.30;33.50;;;;;;4952838;28;19918;-61
2021/07/04 12:25:45;;;;;;;;;;;32.30;33.60;;;;;;4952961;28;19949;-60
2021/07/04 12:28:14;;;;;;;;;;;31.50;34.30;;;;;;4952364;28;19918;-61
2021/07/04 12:30:41;;;;;;;;;;;31.00;35.00;;;;;;4952773;28;20374;-60
2021/07/04 12:33:14;;;;;;;;;;;30.60;35.50;;;;;;4952793;28;19922;-60
2021/07/04 12:35:41;;;;;;;;;;;30.50;36.20;;;;;;4952767;28;20289;-61
2021/07/04 12:38:09;;;;;;;;;;;30.70;36.70;;;;;;4952746;28;19925;-60
2021/07/04 12:40:37;;;;;;;;;;;30.90;36.40;;;;;;4952298;28;19919;-63
2021/07/04 12:43:06;;;;;;;;;;;31.10;36.40;;;;;;4952844;28;19933;-62
2021/07/04 12:45:32;;;;;;;;;;;31.10;36.10;;;;;;4952365;28;19919;-67
2021/07/04 12:47:58;;;;;;;;;;;31.10;36.10;;;;;;4952038;28;19922;-67
2021/07/04 12:50:24;;;;;;;;;;;31.00;36.00;;;;;;4952674;28;19926;-68
2021/07/04 12:52:57;;;;;;;;;;;30.70;35.90;;;;;;4952091;28;20336;-67
2021/07/04 12:55:37;;;;;;;;;;;30.30;36.20;;;;;;4952519;28;19925;-67
2021/07/04 12:58:21;;;;;;;;;;;30.00;36.70;;;;;;4951688;28;19918;-67
2021/07/04 13:00:46;;;;;;;;;;;29.70;37.50;;;;;;4952446;28;19918;-67
2021/07/04 13:03:12;;;;;;;;;;;29.40;38.30;;;;;;4952095;28;19918;-67
2021/07/04 13:05:38;;;;;;;;;;;29.50;39.00;;;;;;4952469;28;19957;-67
2021/07/04 13:08:10;;;;;;;;;;;29.40;39.00;;;;;;4952060;28;20377;-69
2021/07/04 13:10:36;;;;;;;;;;;29.30;39.50;;;;;;4971363;28;19922;-67
2021/07/04 13:13:08;;;;;;;;;;;29.30;40.10;;;;;;4971542;28;20271;-67
2021/07/04 13:15:34;;;;;;;;;;;29.40;40.40;;;;;;4969165;28;20370;-68
2021/07/04 13:18:00;;;;;;;;;;;29.50;40.70;;;;;;4969905;28;20001;-67
2021/07/04 13:20:25;;;;;;;;;;;29.50;41.00;;;;;;4971034;28;19942;-66
2021/07/04 13:22:54;;;;;;;;;;;29.50;40.80;;;;;;4971457;28;19918;-66
2021/07/04 13:25:21;;;;;;;;;;;29.60;41.10;;;;;;4971348;28;20366;-67
2021/07/04 13:27:57;;;;;;;;;;;29.50;41.40;;;;;;4970792;28;20445;-68
2021/07/04 13:30:23;;;;;;;;;;;29.50;41.30;;;;;;4971062;28;19923;-67
2021/07/04 13:33:13;;;;;;;;;;;29.40;41.40;;;;;;4969447;28;19918;-67
2021/07/04 13:35:42;;;;;;;;;;;29.20;41.80;;;;;;4969459;28;19922;-67
2021/07/04 13:38:09;;;;;;;;;;;29.00;42.20;;;;;;4959193;28;19923;-67
2021/07/04 13:40:35;;;;;;;;;;;28.90;42.20;;;;;;4951903;28;19976;-67
2021/07/04 13:43:02;;;;;;;;;;;28.80;42.10;;;;;;4951509;28;20009;-68
2021/07/04 13:45:50;;;;;;;;;;;28.80;42.50;;;;;;4951733;28;20385;-60
2021/07/04 13:48:26;;;;;;;;;;;29.00;42.50;;;;;;4949464;28;19925;-62
2021/07/04 13:50:54;;;;;;;;;;;29.10;42.50;;;;;;4950511;29;20343;-62
2021/07/04 13:53:20;;;;;;;;;;;29.10;42.40;;;;;;4949909;28;19934;-62
2021/07/04 13:55:46;;;;;;;;;;;29.20;42.50;;;;;;4951657;28;19919;-62
2021/07/04 13:58:12;;;;;;;;;;;29.20;42.40;;;;;;4951387;28;19918;-62
2021/07/04 14:00:38;;;;;;;;;;;29.20;42.50;;;;;;4951130;28;20294;-62
2021/07/04 14:03:04;;;;;;;;;;;29.10;42.30;;;;;;4951605;28;20036;-62
2021/07/04 14:05:30;;;;;;;;;;;29.00;43.10;;;;;;4949794;28;19925;-62
2021/07/04 14:07:55;;;;;;;;;;;28.90;42.80;;;;;;4951297;28;19919;-63
2021/07/04 14:10:21;;;;;;;;;;;28.70;42.90;;;;;;4951441;28;19918;-62
2021/07/04 14:12:47;;;;;;;;;;;28.70;43.20;;;;;;4951123;28;19926;-62
2021/07/04 14:15:15;;;;;;;;;;;28.70;43.40;;;;;;4951742;28;20351;-63
2021/07/04 14:17:41;;;;;;;;;;;28.60;43.00;;;;;;4949019;28;20297;-63
2021/07/04 14:20:08;;;;;;;;;;;28.50;43.00;;;;;;4951216;28;19918;-63
2021/07/04 14:22:35;;;;;;;;;;;28.50;43.50;;;;;;4951251;28;20378;-63
2021/07/04 14:25:01;;;;;;;;;;;28.50;43.50;;;;;;4950878;28;19918;-62